createdAt,value
2023-01-09T00:00:45.367Z,18.42
2023-01-09T00:03:11.877Z,17.02
2023-01-09T00:05:38.406Z,21.42
2023-01-09T00:08:05.158Z,18.35
2023-01-09T00:10:31.884Z,14.07
2023-01-09T00:12:58.369Z,17.27
2023-01-09T00:15:24.854Z,15.73
2023-01-09T00:17:51.441Z,17.77
2023-01-09T00:20:18.291Z,17.83
2023-01-09T00:22:44.765Z,20.13
2023-01-09T00:25:11.228Z,16.67
2023-01-09T00:27:37.639Z,20.88
2023-01-09T00:30:04.878Z,25.58
2023-01-09T00:32:34.088Z,19.13
2023-01-09T00:35:00.693Z,18.42
2023-01-09T00:37:27.044Z,22.98
2023-01-09T00:39:53.681Z,20.08
2023-01-09T00:42:24.107Z,18.73
2023-01-09T00:44:57.118Z,18.20
2023-01-09T00:47:32.091Z,20.90
2023-01-09T00:50:11.472Z,15.55
2023-01-09T00:52:39.776Z,17.00
2023-01-09T00:55:07.569Z,19.05
2023-01-09T00:57:34.250Z,20.63
2023-01-09T01:00:01.640Z,22.60
2023-01-09T01:02:28.200Z,20.50
2023-01-09T01:05:13.492Z,15.93
2023-01-09T01:07:40.622Z,19.75
2023-01-09T01:10:12.933Z,16.42
2023-01-09T01:12:40.276Z,19.45
2023-01-09T01:15:08.204Z,19.70
2023-01-09T01:17:39.837Z,17.80
2023-01-09T01:20:10.176Z,21.25
2023-01-09T01:22:36.651Z,23.75
2023-01-09T01:25:05.007Z,17.45
2023-01-09T01:27:31.411Z,17.60
2023-01-09T01:29:57.854Z,19.23
2023-01-09T01:32:24.145Z,20.02
2023-01-09T01:34:51.115Z,21.77
2023-01-09T01:37:17.648Z,19.27
2023-01-09T01:39:44.240Z,16.95
2023-01-09T01:42:13.752Z,20.95
2023-01-09T01:45:08.785Z,17.25
2023-01-09T01:47:39.686Z,19.65
2023-01-09T01:50:25.552Z,22.60
2023-01-09T01:53:14.698Z,19.42
2023-01-09T01:55:46.639Z,17.00
2023-01-09T01:58:15.310Z,18.73
2023-01-09T02:00:44.848Z,19.73
2023-01-09T02:03:15.007Z,20.92
2023-01-09T02:05:41.617Z,20.35
2023-01-09T02:08:08.709Z,19.80
2023-01-09T02:10:37.046Z,18.00
2023-01-09T02:13:04.007Z,26.48
2023-01-09T02:15:49.592Z,21.35
2023-01-09T02:18:39.263Z,19.70
2023-01-09T02:21:33.300Z,19.48
2023-01-09T02:24:35.865Z,19.67
2023-01-09T02:27:38.225Z,19.80
2023-01-09T02:30:31.251Z,23.60
2023-01-09T02:33:18.819Z,21.35
2023-01-09T02:36:04.366Z,16.10
2023-01-09T02:38:42.916Z,20.42
2023-01-09T02:41:34.947Z,20.30
2023-01-09T02:44:18.234Z,18.85
2023-01-09T02:46:45.038Z,20.50
2023-01-09T02:49:13.192Z,21.98
2023-01-09T02:51:53.572Z,21.98
2023-01-09T02:54:32.464Z,21.20
2023-01-09T02:57:17.870Z,21.13
2023-01-09T03:04:11.949Z,17.50
2023-01-09T03:07:07.927Z,17.75
2023-01-09T03:10:00.901Z,24.48
2023-01-09T03:12:49.949Z,21.15
2023-01-09T03:15:39.373Z,21.23
2023-01-09T03:18:27.606Z,20.25
2023-01-09T03:21:13.284Z,18.77
2023-01-09T03:24:00.822Z,22.42
2023-01-09T03:26:46.048Z,24.67
2023-01-09T03:32:16.340Z,22.13
2023-01-09T03:35:01.670Z,21.83
2023-01-09T03:37:46.613Z,21.17
2023-01-09T03:40:31.639Z,26.73
2023-01-09T03:43:16.737Z,23.33
2023-01-09T03:46:02.102Z,26.00
2023-01-09T03:48:47.363Z,28.25
2023-01-09T03:51:31.951Z,24.40
2023-01-09T03:54:17.126Z,27.27
2023-01-09T03:59:47.311Z,22.05
2023-01-09T04:02:31.966Z,21.50
2023-01-09T04:05:16.798Z,26.70
2023-01-09T04:08:01.505Z,24.10
2023-01-09T04:10:48.198Z,22.10
2023-01-09T04:13:32.824Z,25.67
2023-01-09T04:16:17.877Z,25.23
2023-01-09T04:19:02.863Z,27.48
2023-01-09T04:21:48.119Z,24.02
2023-01-09T04:24:32.875Z,25.33
2023-01-09T04:30:04.090Z,24.45
2023-01-09T04:32:49.226Z,22.77
2023-01-09T04:35:33.907Z,23.08
2023-01-09T04:41:04.084Z,29.92
2023-01-09T04:46:33.957Z,21.20
2023-01-09T04:49:19.651Z,24.38
2023-01-09T04:52:04.697Z,24.65
2023-01-09T04:57:35.381Z,22.23
2023-01-09T05:00:20.337Z,24.50
2023-01-09T05:03:05.022Z,28.10
2023-01-09T05:05:50.185Z,24.60
2023-01-09T05:08:34.841Z,26.00
2023-01-09T05:11:19.866Z,26.63
2023-01-09T05:14:04.507Z,28.80
2023-01-09T05:19:34.469Z,22.73
2023-01-09T05:22:19.779Z,26.48
2023-01-09T05:25:04.677Z,23.15
2023-01-09T05:27:49.811Z,25.65
2023-01-09T05:30:34.671Z,26.13
2023-01-09T05:33:19.818Z,26.08
2023-01-09T05:36:05.096Z,25.35
2023-01-09T05:38:49.773Z,28.17
2023-01-09T05:44:19.590Z,27.25
2023-01-09T05:49:49.229Z,26.02
2023-01-09T05:55:19.609Z,27.75
2023-01-09T05:58:04.334Z,28.15
2023-01-09T06:00:51.534Z,26.88
2023-01-09T06:03:36.224Z,28.23
2023-01-09T06:06:23.496Z,27.70
2023-01-09T06:09:08.154Z,31.00
2023-01-09T06:11:54.186Z,32.47
2023-01-09T06:14:39.207Z,29.92
2023-01-09T06:17:27.264Z,30.05
2023-01-09T06:20:12.423Z,30.15
2023-01-09T06:25:41.995Z,25.65
2023-01-09T06:28:27.092Z,25.33
2023-01-09T06:31:12.726Z,25.08
2023-01-09T06:33:58.454Z,30.08
2023-01-09T06:36:43.302Z,24.20
2023-01-09T06:42:13.033Z,23.92
2023-01-09T06:44:57.961Z,25.35
2023-01-09T06:50:27.594Z,24.30
2023-01-09T06:56:01.666Z,27.10
2023-01-09T06:58:46.507Z,28.08
2023-01-09T07:01:31.932Z,26.85
2023-01-09T07:04:17.318Z,23.48
2023-01-09T07:07:02.544Z,26.67
2023-01-09T07:09:47.706Z,28.17
2023-01-09T07:12:32.587Z,27.40
2023-01-09T07:15:17.562Z,26.70
2023-01-09T07:18:03.261Z,24.70
2023-01-09T07:20:48.679Z,30.00
2023-01-09T07:23:34.001Z,22.73
2023-01-09T07:26:19.192Z,22.38
2023-01-09T07:29:04.508Z,27.00
2023-01-09T07:31:49.515Z,26.70
2023-01-09T07:34:34.557Z,25.77
2023-01-09T07:37:19.177Z,24.70
2023-01-09T07:42:52.281Z,21.23
2023-01-09T07:45:37.329Z,27.80
2023-01-09T07:48:22.103Z,34.10
2023-01-09T07:51:07.122Z,27.15
2023-01-09T07:56:36.588Z,22.63
2023-01-09T07:59:21.673Z,26.25
2023-01-09T08:02:08.721Z,25.50
2023-01-09T08:04:53.408Z,26.30
2023-01-09T08:07:38.102Z,24.88
2023-01-09T08:10:22.991Z,24.90
2023-01-09T08:15:53.514Z,24.80
2023-01-09T08:18:38.636Z,20.63
2023-01-09T08:21:23.304Z,23.48
2023-01-09T08:24:09.213Z,21.05
2023-01-09T08:26:55.896Z,21.63
2023-01-09T08:29:40.771Z,21.25
2023-01-09T08:32:25.951Z,19.52
2023-01-09T08:35:10.959Z,25.10
2023-01-09T08:37:56.307Z,24.08
2023-01-09T08:43:44.839Z,25.02
2023-01-09T08:46:57.381Z,19.02
2023-01-09T08:49:42.214Z,20.42
2023-01-09T08:52:30.028Z,23.13
2023-01-09T08:55:15.003Z,23.85
2023-01-09T08:58:00.246Z,20.98
2023-01-09T09:03:29.453Z,25.90
2023-01-09T09:06:14.664Z,28.95
2023-01-09T09:09:03.390Z,24.90
2023-01-09T09:11:48.165Z,21.55
2023-01-09T09:17:40.022Z,21.00
2023-01-09T09:20:34.394Z,26.02
2023-01-09T09:23:19.340Z,31.08
2023-01-09T09:26:04.556Z,25.73
2023-01-09T09:28:49.341Z,28.35
2023-01-09T09:34:20.498Z,27.40
2023-01-09T09:39:49.965Z,26.85
2023-01-09T09:43:21.585Z,23.55
2023-01-09T09:46:27.870Z,25.67
2023-01-09T09:49:23.417Z,21.67
2023-01-09T09:52:20.213Z,22.73
2023-01-09T09:55:20.769Z,23.77
2023-01-09T09:58:25.497Z,29.83
2023-01-09T10:01:16.224Z,30.50
2023-01-09T10:04:06.257Z,27.90
2023-01-09T10:06:57.157Z,29.23
2023-01-09T10:09:54.042Z,25.60
2023-01-09T10:12:50.094Z,27.83
2023-01-09T10:15:46.806Z,27.50
2023-01-09T10:18:40.239Z,26.00
2023-01-09T10:21:35.545Z,24.40
2023-01-09T10:24:42.274Z,26.90
2023-01-09T10:27:48.295Z,31.38
2023-01-09T10:31:09.834Z,30.25
2023-01-09T10:34:55.147Z,30.60
2023-01-09T10:37:46.126Z,27.83
2023-01-09T10:40:37.483Z,28.00
2023-01-09T10:43:48.771Z,26.02
2023-01-09T10:46:49.217Z,27.65
2023-01-09T10:49:36.490Z,26.10
2023-01-09T10:52:29.425Z,30.92
2023-01-09T10:55:18.798Z,28.02
2023-01-09T10:58:18.344Z,26.45
2023-01-09T11:01:04.800Z,25.60
2023-01-09T11:03:49.362Z,25.52
2023-01-09T11:06:47.005Z,29.02
2023-01-09T11:10:11.498Z,27.70
2023-01-09T11:13:18.966Z,25.25
2023-01-09T11:16:10.384Z,23.40
2023-01-09T11:18:59.216Z,29.48
2023-01-09T11:21:44.327Z,28.95
2023-01-09T11:24:30.783Z,30.25
2023-01-09T11:27:24.205Z,28.35
2023-01-09T11:30:25.573Z,32.50
2023-01-09T11:33:33.820Z,27.40
2023-01-09T11:36:26.499Z,30.75
2023-01-09T11:39:25.087Z,27.63
2023-01-09T11:42:44.763Z,22.83
2023-01-09T11:45:33.361Z,29.20
2023-01-09T11:48:54.052Z,26.40
2023-01-09T11:51:38.844Z,30.50
2023-01-09T11:54:34.695Z,26.80
2023-01-09T11:57:22.495Z,33.08
2023-01-09T12:00:30.303Z,28.13
2023-01-09T12:03:30.255Z,35.78
2023-01-09T12:06:38.008Z,29.77
2023-01-09T12:09:54.672Z,32.10
2023-01-09T12:13:14.416Z,27.25
2023-01-09T12:16:08.152Z,31.50
2023-01-09T12:19:06.938Z,35.67
2023-01-09T12:22:01.875Z,28.33
2023-01-09T12:25:05.515Z,32.38
2023-01-09T12:28:27.401Z,35.72
2023-01-09T12:31:30.838Z,25.35
2023-01-09T12:34:18.772Z,30.55
2023-01-09T12:37:22.660Z,30.25
2023-01-09T12:40:16.913Z,33.97
2023-01-09T12:43:28.881Z,29.10
2023-01-09T12:46:22.444Z,29.40
2023-01-09T12:49:27.345Z,36.97
2023-01-09T12:52:22.519Z,32.90
2023-01-09T12:55:13.806Z,29.98
2023-01-09T12:58:01.107Z,32.10
2023-01-09T13:00:53.362Z,30.70
2023-01-09T13:03:50.641Z,30.88
2023-01-09T13:06:39.760Z,31.85
2023-01-09T13:09:31.545Z,37.08
2023-01-09T13:12:22.423Z,40.20
2023-01-09T13:15:22.041Z,36.65
2023-01-09T13:18:25.982Z,38.92
2023-01-09T13:24:20.231Z,30.27
2023-01-09T13:27:16.182Z,32.25
2023-01-09T13:30:14.410Z,32.67
2023-01-09T13:33:17.825Z,32.08
2023-01-09T13:36:05.100Z,31.73
2023-01-09T13:38:50.642Z,28.92
2023-01-09T13:42:06.108Z,26.70
2023-01-09T13:44:55.921Z,34.58
2023-01-09T13:47:44.359Z,34.85
2023-01-09T13:50:29.087Z,36.42
2023-01-09T13:56:02.674Z,33.92
2023-01-09T13:58:53.815Z,35.70
2023-01-09T14:01:41.073Z,42.25
2023-01-09T14:04:40.895Z,38.42
2023-01-09T14:07:28.098Z,39.22
2023-01-09T14:10:26.956Z,34.78
2023-01-09T14:13:19.995Z,42.53
2023-01-09T14:16:13.675Z,39.53
2023-01-09T14:19:02.277Z,36.65
2023-01-09T14:21:56.767Z,36.25
2023-01-09T14:24:46.033Z,38.50
2023-01-09T14:27:55.474Z,33.88
2023-01-09T14:30:52.190Z,35.17
2023-01-09T14:33:37.683Z,35.85
2023-01-09T14:36:26.593Z,38.92
2023-01-09T14:39:13.313Z,36.45
2023-01-09T14:42:05.694Z,40.00
2023-01-09T14:45:05.952Z,45.03
2023-01-09T14:47:54.144Z,42.85
2023-01-09T14:50:50.013Z,51.28
2023-01-09T14:53:38.705Z,40.90
2023-01-09T14:56:29.904Z,41.28
2023-01-09T14:59:15.795Z,45.72
2023-01-09T15:02:01.274Z,40.70
2023-01-09T15:04:45.957Z,44.80
2023-01-09T15:07:39.779Z,36.08
2023-01-09T15:10:30.010Z,41.15
2023-01-09T15:13:28.708Z,38.13
2023-01-09T15:16:19.925Z,37.88
2023-01-09T15:19:08.306Z,35.10
2023-01-09T15:21:58.645Z,38.35
2023-01-09T15:24:43.685Z,31.38
2023-01-09T15:30:21.947Z,25.60
2023-01-09T15:33:15.891Z,35.80
2023-01-09T15:36:07.062Z,31.13
2023-01-09T15:38:52.918Z,28.40
2023-01-09T15:41:56.244Z,30.05
2023-01-09T15:44:44.359Z,34.95
2023-01-09T15:47:32.106Z,27.73
2023-01-09T15:50:27.415Z,30.25
2023-01-09T15:53:23.654Z,35.33
2023-01-09T15:56:11.521Z,25.05
2023-01-09T15:58:58.148Z,23.98
2023-01-09T16:01:44.289Z,30.40
2023-01-09T16:04:29.320Z,25.88
2023-01-09T16:07:16.232Z,25.88
2023-01-09T16:10:01.338Z,29.17
2023-01-09T16:12:47.532Z,25.08
2023-01-09T16:15:34.586Z,28.23
2023-01-09T16:18:22.758Z,28.02
2023-01-09T16:21:31.468Z,26.08
2023-01-09T16:24:16.141Z,29.90
2023-01-09T16:30:05.388Z,26.92
2023-01-09T16:32:53.405Z,22.48
2023-01-09T16:35:38.352Z,27.58
2023-01-09T16:41:34.364Z,25.35
2023-01-09T16:44:19.640Z,24.23
2023-01-09T16:47:05.022Z,28.90
2023-01-09T16:49:49.953Z,28.30
2023-01-09T16:52:34.595Z,29.05
2023-01-09T16:55:19.881Z,26.40
2023-01-09T16:58:04.580Z,26.40
2023-01-09T17:00:50.058Z,26.45
2023-01-09T17:03:35.427Z,27.25
2023-01-09T17:09:13.603Z,24.75
2023-01-09T17:11:58.745Z,20.02
2023-01-09T17:14:43.730Z,22.27
2023-01-09T17:17:28.844Z,23.45
2023-01-09T17:20:17.750Z,24.30
2023-01-09T17:23:02.487Z,26.73
2023-01-09T17:26:09.137Z,22.33
2023-01-09T17:28:54.249Z,21.58
2023-01-09T17:31:39.259Z,21.48
2023-01-09T17:34:24.322Z,21.77
2023-01-09T17:37:19.168Z,20.27
2023-01-09T17:40:25.662Z,22.23
2023-01-09T17:43:10.699Z,21.30
2023-01-09T17:45:55.912Z,20.35
2023-01-09T17:48:40.679Z,19.63
2023-01-09T17:51:26.342Z,21.05
2023-01-09T17:54:11.640Z,18.17
2023-01-09T17:57:03.769Z,18.33
2023-01-09T17:59:48.862Z,19.92
2023-01-09T18:02:33.954Z,24.98
2023-01-09T18:05:19.669Z,24.88
2023-01-09T18:08:08.494Z,22.90
2023-01-09T18:10:54.066Z,21.88
2023-01-09T18:13:39.795Z,22.75
2023-01-09T18:16:26.936Z,35.70
2023-01-09T18:19:12.192Z,29.42
2023-01-09T18:21:58.798Z,32.13
2023-01-09T18:24:43.768Z,29.20
2023-01-09T18:27:28.823Z,22.27
2023-01-09T18:30:13.741Z,23.63
2023-01-09T18:32:58.510Z,26.40
2023-01-09T18:35:44.613Z,27.35
2023-01-09T18:38:30.269Z,29.20
2023-01-09T18:41:15.094Z,27.02
2023-01-09T18:44:01.240Z,26.25
2023-01-09T18:46:46.513Z,24.63
2023-01-09T18:49:31.667Z,30.02
2023-01-09T18:52:16.638Z,27.65
2023-01-09T18:55:01.401Z,26.55
2023-01-09T19:00:31.283Z,29.27
2023-01-09T19:03:16.377Z,29.55
2023-01-09T19:06:02.648Z,29.85
2023-01-09T19:08:48.141Z,35.05
2023-01-09T19:14:17.232Z,32.17
2023-01-09T19:19:49.503Z,36.33
2023-01-09T19:22:34.313Z,38.47
2023-01-09T19:25:19.163Z,28.95
2023-01-09T19:28:04.160Z,31.65
2023-01-09T19:30:56.435Z,35.63
2023-01-09T19:33:41.366Z,34.08
2023-01-09T19:36:27.067Z,36.25
2023-01-09T19:39:12.133Z,34.22
2023-01-09T19:41:59.180Z,31.98
2023-01-09T19:47:36.968Z,44.47
2023-01-09T19:50:22.241Z,36.47
2023-01-09T19:53:07.238Z,40.20
2023-01-09T19:58:37.359Z,34.00
2023-01-09T20:01:24.996Z,36.72
2023-01-09T20:04:15.178Z,36.28
2023-01-09T20:06:59.914Z,39.05
2023-01-09T20:09:45.127Z,34.42
2023-01-09T20:12:31.372Z,34.80
2023-01-09T20:15:16.844Z,32.20
2023-01-09T20:20:49.563Z,34.05
2023-01-09T20:23:35.497Z,36.00
2023-01-09T20:26:22.216Z,35.33
2023-01-09T20:29:09.989Z,38.85
2023-01-09T20:31:55.423Z,31.48
2023-01-09T20:34:42.127Z,33.75
2023-01-09T20:37:27.099Z,37.40
2023-01-09T20:40:11.785Z,32.03
2023-01-09T20:42:57.809Z,33.78
2023-01-09T20:45:42.827Z,33.75
2023-01-09T20:48:28.564Z,33.63
2023-01-09T20:51:13.785Z,31.27
2023-01-09T20:53:58.709Z,32.97
2023-01-09T20:56:44.049Z,33.40
2023-01-09T20:59:28.827Z,37.08
2023-01-09T21:02:14.264Z,33.20
2023-01-09T21:04:59.008Z,34.60
2023-01-09T21:10:28.408Z,29.02
2023-01-09T21:16:03.880Z,28.08
2023-01-09T21:18:50.082Z,35.10
2023-01-09T21:21:35.013Z,32.75
2023-01-09T21:27:04.222Z,31.77
2023-01-09T21:29:53.656Z,33.10
2023-01-09T21:32:38.603Z,30.10
2023-01-09T21:38:09.137Z,32.33
2023-01-09T21:40:54.430Z,25.17
2023-01-09T21:46:51.338Z,28.80
2023-01-09T21:49:40.067Z,33.63
2023-01-09T21:52:25.076Z,33.22
2023-01-09T21:55:09.754Z,29.20
2023-01-09T21:57:55.692Z,27.13
2023-01-09T22:01:05.760Z,28.73
2023-01-09T22:03:56.231Z,31.73
2023-01-09T22:06:43.958Z,32.55
2023-01-09T22:09:28.722Z,28.60
2023-01-09T22:12:13.761Z,27.75
2023-01-09T22:14:58.689Z,26.05
2023-01-09T22:20:28.206Z,28.90
2023-01-09T22:23:13.799Z,25.23
2023-01-09T22:26:00.037Z,26.55
2023-01-09T22:28:45.430Z,26.98
2023-01-09T22:31:32.140Z,26.55
2023-01-09T22:34:17.831Z,26.60
2023-01-09T22:37:02.963Z,24.80
2023-01-09T22:39:47.912Z,32.03
2023-01-09T22:45:17.754Z,24.02
2023-01-09T22:48:02.700Z,24.27
2023-01-09T22:50:47.386Z,26.52
2023-01-09T22:53:33.198Z,29.95
2023-01-09T22:56:20.163Z,26.67
2023-01-09T22:59:07.995Z,25.17
2023-01-09T23:01:53.543Z,36.70
2023-01-09T23:04:38.751Z,22.55
2023-01-09T23:07:24.268Z,21.23
2023-01-09T23:10:09.951Z,20.35
2023-01-09T23:12:54.920Z,21.48
2023-01-09T23:15:40.285Z,19.85
2023-01-09T23:18:25.099Z,19.92
2023-01-09T23:21:10.455Z,18.02
2023-01-09T23:26:39.710Z,20.67
2023-01-09T23:29:25.630Z,20.13
2023-01-09T23:32:13.519Z,20.98
2023-01-09T23:34:58.245Z,23.23
2023-01-09T23:37:43.373Z,18.05
2023-01-09T23:40:28.975Z,18.48
2023-01-09T23:43:14.838Z,16.73
2023-01-09T23:45:59.569Z,19.17
2023-01-09T23:48:44.515Z,17.15
2023-01-09T23:51:29.399Z,25.75
2023-01-09T23:54:14.342Z,24.08
2023-01-09T23:59:43.760Z,17.35
